Time;durP1;ratioP1;P1;durP2;ratioP2;P2;SDS_P1;SDS_P2;PMS_P1;PMS_P2;Temp;Humidity;BMP_temperature;BMP_pressure;BME280_temperature;BME280_humidity;BME280_pressure;Samples;Min_cycle;Max_cycle;Signal;HPM_P1;HPM_P2
2023/01/11 00:01:03;;;;;;;2.10;0.60;;;-0.10;99.90;;;;;;5022840;28;20689;-75
2023/01/11 00:03:31;;;;;;;1.77;0.63;;;-0.10;99.90;;;;;;5025442;28;20548;-75
2023/01/11 00:05:59;;;;;;;0.70;0.50;;;-0.10;99.90;;;;;;5020499;28;20251;-75
2023/01/11 00:08:26;;;;;;;3.63;0.80;;;-0.10;99.90;;;;;;5022575;28;20516;-75
2023/01/11 00:10:54;;;;;;;1.87;0.80;;;0.00;99.90;;;;;;5022803;28;20230;-75
2023/01/11 00:13:21;;;;;;;2.83;0.70;;;0.00;99.90;;;;;;5020098;28;20597;-75
2023/01/11 00:15:48;;;;;;;2.57;0.77;;;0.00;99.90;;;;;;5022225;28;20524;-75
2023/01/11 00:18:16;;;;;;;3.73;0.60;;;0.00;99.90;;;;;;5019066;28;20497;-75
2023/01/11 00:20:43;;;;;;;1.23;0.70;;;0.00;99.90;;;;;;5018791;28;20892;-75
2023/01/11 00:23:10;;;;;;;1.97;0.70;;;0.00;99.90;;;;;;5023579;28;20715;-75
2023/01/11 00:25:37;;;;;;;1.43;0.50;;;-0.10;99.90;;;;;;5022279;28;20600;-75
2023/01/11 00:28:05;;;;;;;1.57;0.60;;;0.00;99.90;;;;;;5024751;28;20498;-75
2023/01/11 00:30:34;;;;;;;0.70;0.60;;;-0.10;99.90;;;;;;5024140;28;20482;-75
2023/01/11 00:33:01;;;;;;;1.50;0.87;;;-0.10;99.90;;;;;;5022089;28;20805;-75
2023/01/11 00:35:31;;;;;;;1.02;0.75;;;-0.20;99.90;;;;;;5023408;28;20497;-75
2023/01/11 00:37:58;;;;;;;2.47;0.80;;;-0.30;99.90;;;;;;5021273;28;20202;-75
2023/01/11 00:40:26;;;;;;;0.67;0.57;;;-0.40;99.90;;;;;;5024262;28;20476;-75
2023/01/11 00:48:23;;;;;;;1.17;0.60;;;-0.60;99.90;;;;;;5022688;28;20550;-75
2023/01/11 00:50:54;;;;;;;6.43;1.63;;;-0.80;99.90;;;;;;5021462;28;20530;-75
2023/01/11 00:53:21;;;;;;;0.90;0.47;;;-0.80;99.90;;;;;;5021252;28;20525;-75
2023/01/11 00:55:48;;;;;;;0.83;0.60;;;-0.80;99.90;;;;;;5021314;28;20478;-75
2023/01/11 00:58:15;;;;;;;2.90;0.70;;;-0.80;99.90;;;;;;5021204;28;20516;-75
2023/01/11 01:00:42;;;;;;;0.93;0.50;;;-0.90;99.90;;;;;;5022049;28;20493;-75
2023/01/11 01:03:09;;;;;;;2.40;0.50;;;-1.00;99.90;;;;;;5024011;28;21084;-75
2023/01/11 01:05:38;;;;;;;3.27;0.70;;;-1.00;99.90;;;;;;5022251;28;20505;-75
2023/01/11 01:08:06;;;;;;;1.17;0.60;;;-1.00;99.90;;;;;;5024196;28;20560;-76
2023/01/11 01:10:34;;;;;;;0.80;0.50;;;-1.00;99.90;;;;;;5021032;28;20732;-76
2023/01/11 01:15:45;;;;;;;1.20;0.70;;;-1.10;99.90;;;;;;5018569;28;20429;-75
2023/01/11 01:18:11;;;;;;;5.10;0.70;;;-1.20;99.90;;;;;;5025455;28;20813;-75
2023/01/11 01:20:39;;;;;;;2.97;0.98;;;-1.20;99.90;;;;;;5018036;28;20486;-75
2023/01/11 01:23:07;;;;;;;1.90;1.03;;;-1.20;99.90;;;;;;5023041;28;20253;-75
2023/01/11 01:25:36;;;;;;;0.85;0.80;;;-1.20;99.90;;;;;;5022640;28;20504;-75
2023/01/11 01:28:04;;;;;;;2.03;0.93;;;-1.20;99.90;;;;;;5020010;28;20631;-75
2023/01/11 01:30:32;;;;;;;1.95;1.00;;;-1.10;99.90;;;;;;5022959;28;20469;-75
2023/01/11 01:32:59;;;;;;;3.93;0.90;;;-1.10;99.90;;;;;;5019283;28;20205;-75
2023/01/11 01:35:26;;;;;;;2.13;0.77;;;-1.10;99.90;;;;;;5026741;28;20511;-75
2023/01/11 01:37:53;;;;;;;1.45;0.70;;;-1.20;99.90;;;;;;5020679;28;20485;-75
2023/01/11 01:40:21;;;;;;;5.20;1.47;;;-1.20;99.90;;;;;;5021791;28;20666;-75
2023/01/11 01:42:53;;;;;;;3.30;1.10;;;-1.20;99.90;;;;;;5022048;28;20476;-75
2023/01/11 01:45:24;;;;;;;4.53;1.17;;;-1.10;99.90;;;;;;5022568;28;20567;-75
2023/01/11 01:47:55;;;;;;;2.20;1.10;;;-1.10;99.90;;;;;;5017415;28;20614;-75
2023/01/11 01:50:25;;;;;;;2.00;1.07;;;-1.20;99.90;;;;;;5021575;28;20492;-75
2023/01/11 01:52:55;;;;;;;1.10;0.80;;;-1.10;99.90;;;;;;5021600;28;20481;-74
2023/01/11 01:55:29;;;;;;;3.50;0.60;;;-1.10;99.90;;;;;;5021480;28;20533;-75
2023/01/11 01:57:57;;;;;;;2.00;0.90;;;-1.10;99.90;;;;;;5022729;28;20485;-75
2023/01/11 02:00:24;;;;;;;1.83;0.50;;;-1.10;99.90;;;;;;5024481;28;20893;-74
2023/01/11 02:02:51;;;;;;;1.60;0.50;;;-1.10;99.90;;;;;;5018427;28;20470;-74
2023/01/11 02:05:18;;;;;;;2.40;0.60;;;-0.90;99.90;;;;;;5020140;28;20491;-75
2023/01/11 02:07:47;;;;;;;1.60;0.80;;;-0.90;99.90;;;;;;5016598;28;20545;-75
2023/01/11 02:10:16;;;;;;;1.63;0.50;;;-1.00;99.90;;;;;;5016674;28;20472;-75
2023/01/11 02:12:48;;;;;;;2.40;0.70;;;-1.00;99.90;;;;;;5015499;28;20492;-75
2023/01/11 02:15:17;;;;;;;0.60;0.40;;;-1.00;99.90;;;;;;5018480;28;20539;-75
2023/01/11 02:17:44;;;;;;;1.27;0.70;;;-1.10;99.90;;;;;;5014674;28;20488;-74
2023/01/11 02:20:26;;;;;;;1.27;0.50;;;-1.20;99.90;;;;;;5018514;28;21203;-75
2023/01/11 02:23:20;;;;;;;0.80;0.50;;;-1.20;99.90;;;;;;5015489;28;20485;-75
2023/01/11 02:26:10;;;;;;;0.90;0.60;;;-1.20;99.90;;;;;;5015160;28;20572;-75
2023/01/11 02:28:43;;;;;;;0.97;0.77;;;-1.30;99.90;;;;;;4995720;28;21500;-74
2023/01/11 02:31:18;;;;;;;0.50;0.50;;;-1.40;99.90;;;;;;5014766;28;21073;-75
2023/01/11 02:33:57;;;;;;;3.55;1.50;;;-1.40;99.90;;;;;;5015834;28;20474;-75
2023/01/11 02:36:33;;;;;;;1.85;0.60;;;-1.40;99.90;;;;;;5019119;28;20291;-74
2023/01/11 02:39:08;;;;;;;1.43;0.77;;;-1.30;99.90;;;;;;5019243;28;20509;-74
2023/01/11 02:47:29;;;;;;;0.60;0.50;;;-1.20;99.90;;;;;;5015141;28;20545;-75
2023/01/11 02:50:02;;;;;;;2.10;0.70;;;-1.20;99.90;;;;;;5013957;28;20425;-75
2023/01/11 02:52:36;;;;;;;2.40;0.63;;;-1.20;99.90;;;;;;5017581;28;20491;-75
2023/01/11 02:55:05;;;;;;;2.10;0.70;;;-1.20;99.90;;;;;;5014893;28;20553;-75
2023/01/11 02:57:34;;;;;;;1.10;0.80;;;-1.30;99.90;;;;;;5018199;28;20484;-75
2023/01/11 03:00:03;;;;;;;1.47;0.70;;;-1.20;99.90;;;;;;5015723;28;20541;-75
2023/01/11 03:02:30;;;;;;;4.97;0.73;;;-1.20;99.90;;;;;;5017002;28;20490;-75
2023/01/11 03:04:57;;;;;;;2.60;0.73;;;-1.10;99.90;;;;;;5015528;28;20549;-75
2023/01/11 03:07:41;;;;;;;0.80;0.60;;;-0.90;99.90;;;;;;5020912;28;20521;-75
2023/01/11 03:10:18;;;;;;;0.90;0.53;;;-0.90;99.90;;;;;;5020105;28;20804;-74
2023/01/11 03:12:57;;;;;;;1.07;0.60;;;-0.80;99.90;;;;;;5018081;28;20548;-75
2023/01/11 03:16:00;;;;;;;3.90;1.00;;;-0.70;99.90;;;;;;5018824;28;20535;-75
2023/01/11 03:18:46;;;;;;;1.53;0.80;;;-0.60;99.90;;;;;;5020980;28;20454;-75
2023/01/11 03:21:44;;;;;;;6.93;0.83;;;-0.50;99.90;;;;;;5021570;28;20567;-75
2023/01/11 03:24:19;;;;;;;1.30;0.68;;;-0.50;99.90;;;;;;5019296;28;20475;-74
2023/01/11 03:26:53;;;;;;;1.70;0.50;;;-0.30;99.90;;;;;;5017267;28;20334;-74
2023/01/11 03:29:28;;;;;;;1.47;0.50;;;-0.20;99.90;;;;;;5019798;28;20999;-74
2023/01/11 03:32:05;;;;;;;1.43;0.60;;;-0.20;99.90;;;;;;5017181;28;20496;-75
2023/01/11 03:34:36;;;;;;;1.37;0.60;;;-0.20;99.90;;;;;;5022423;28;21018;-75
2023/01/11 03:37:09;;;;;;;1.70;0.50;;;-0.10;99.90;;;;;;5027408;28;20792;-75
2023/01/11 03:39:41;;;;;;;2.45;0.47;;;-0.10;99.90;;;;;;5022598;28;20462;-75
2023/01/11 03:42:12;;;;;;;6.57;0.82;;;-0.20;99.90;;;;;;5025926;28;20320;-75
2023/01/11 03:44:43;;;;;;;1.83;0.50;;;-0.20;99.90;;;;;;5025302;28;20242;-75
2023/01/11 03:47:14;;;;;;;0.70;0.40;;;-0.20;99.90;;;;;;5024624;28;20513;-75
2023/01/11 03:49:45;;;;;;;0.80;0.50;;;-0.30;99.90;;;;;;5021993;28;20482;-75
2023/01/11 03:52:16;;;;;;;2.47;0.60;;;-0.30;99.90;;;;;;5024758;28;20485;-75
2023/01/11 03:54:45;;;;;;;2.50;1.13;;;-0.40;99.90;;;;;;5022731;28;20936;-74
2023/01/11 03:57:16;;;;;;;0.80;0.70;;;-0.40;99.90;;;;;;5020415;28;20555;-75
2023/01/11 03:59:43;;;;;;;2.13;1.00;;;-0.30;99.90;;;;;;5023299;28;20845;-74
2023/01/11 04:02:17;;;;;;;5.05;0.70;;;-0.40;99.90;;;;;;5020339;28;20500;-75
2023/01/11 04:04:44;;;;;;;2.07;1.17;;;-0.40;99.90;;;;;;5022367;28;20414;-75
2023/01/11 04:07:11;;;;;;;1.43;0.60;;;-0.40;99.90;;;;;;5020218;28;20581;-75
2023/01/11 04:09:38;;;;;;;1.20;0.50;;;-0.40;99.90;;;;;;5018668;28;21050;-74
2023/01/11 04:12:05;;;;;;;2.30;0.77;;;-0.40;99.90;;;;;;5016831;28;20574;-74
2023/01/11 04:14:33;;;;;;;1.37;0.60;;;-0.30;99.90;;;;;;5019424;28;20536;-75
2023/01/11 04:17:00;;;;;;;2.73;0.53;;;-0.30;99.90;;;;;;5015997;28;20482;-75
2023/01/11 04:19:28;;;;;;;3.50;0.53;;;-0.30;99.90;;;;;;5019360;28;20708;-75
2023/01/11 04:21:55;;;;;;;0.70;0.60;;;-0.30;99.90;;;;;;5017682;28;20683;-75
2023/01/11 04:24:22;;;;;;;1.33;0.50;;;-0.20;99.90;;;;;;5024542;28;20458;-75
2023/01/11 04:26:49;;;;;;;1.23;0.57;;;-0.10;99.90;;;;;;5021601;28;20535;-75
2023/01/11 04:29:16;;;;;;;0.97;0.60;;;-0.20;99.90;;;;;;5019996;28;20523;-75
2023/01/11 04:31:43;;;;;;;0.47;0.40;;;-0.10;99.90;;;;;;5017411;28;20976;-75
2023/01/11 04:34:11;;;;;;;1.17;0.50;;;0.00;99.90;;;;;;5021671;28;20489;-75
2023/01/11 04:36:39;;;;;;;1.33;0.43;;;0.10;99.90;;;;;;5024821;28;20477;-75
2023/01/11 04:39:09;;;;;;;1.10;0.50;;;0.20;99.90;;;;;;5019404;28;20490;-75
2023/01/11 04:44:20;;;;;;;1.17;0.57;;;0.40;99.90;;;;;;5019170;28;20466;-75
2023/01/11 04:46:47;;;;;;;0.53;0.50;;;0.40;99.90;;;;;;5023025;28;20529;-75
2023/01/11 04:49:14;;;;;;;2.95;0.70;;;0.60;99.90;;;;;;5019855;28;20494;-75
2023/01/11 04:51:43;;;;;;;1.17;0.83;;;0.50;99.90;;;;;;5019689;28;20654;-75
2023/01/11 04:54:11;;;;;;;7.37;3.00;;;0.50;99.90;;;;;;5021420;28;20485;-75
2023/01/11 04:56:38;;;;;;;9.47;5.47;;;0.50;99.90;;;;;;5021611;28;20574;-75
2023/01/11 04:59:04;;;;;;;8.50;4.70;;;0.50;99.90;;;;;;5020180;28;20571;-75
2023/01/11 05:01:31;;;;;;;8.80;2.93;;;0.40;99.90;;;;;;5020077;28;20853;-75
2023/01/11 05:03:58;;;;;;;3.20;2.10;;;0.40;99.90;;;;;;5022271;28;20488;-75
2023/01/11 05:06:25;;;;;;;4.75;2.13;;;0.40;99.90;;;;;;5021861;28;20520;-75
2023/01/11 05:08:54;;;;;;;2.10;1.70;;;0.40;99.90;;;;;;5021645;28;20574;-75
2023/01/11 05:11:21;;;;;;;3.33;2.28;;;0.40;99.90;;;;;;5024211;28;20485;-75
2023/01/11 05:13:47;;;;;;;1.08;0.80;;;0.40;99.90;;;;;;5019321;28;20238;-75
2023/01/11 05:16:17;;;;;;;1.83;1.00;;;0.50;99.90;;;;;;5022010;28;20234;-75
2023/01/11 05:18:46;;;;;;;2.43;1.00;;;0.50;99.90;;;;;;5023087;28;20457;-75
2023/01/11 05:21:15;;;;;;;1.90;0.60;;;0.60;99.90;;;;;;5023264;28;20484;-75
2023/01/11 05:23:42;;;;;;;3.10;0.93;;;0.70;99.90;;;;;;5022911;28;20535;-75
2023/01/11 05:26:13;;;;;;;0.80;0.47;;;0.80;99.90;;;;;;5021451;28;20601;-75
2023/01/11 05:28:40;;;;;;;3.27;0.43;;;0.90;99.90;;;;;;5022443;28;20496;-75
2023/01/11 05:31:07;;;;;;;0.57;0.47;;;0.90;99.90;;;;;;5017768;28;20493;-75
2023/01/11 05:33:34;;;;;;;0.80;0.50;;;0.90;99.90;;;;;;5021884;28;21134;-75
2023/01/11 05:36:03;;;;;;;0.60;0.40;;;0.90;99.90;;;;;;5024117;28;21096;-74
2023/01/11 05:38:30;;;;;;;1.13;0.50;;;0.90;99.90;;;;;;5018398;28;20496;-74
2023/01/11 05:40:58;;;;;;;1.27;0.50;;;0.90;99.90;;;;;;5015650;28;20445;-75
2023/01/11 05:43:28;;;;;;;0.80;0.60;;;0.90;99.90;;;;;;5017857;28;20521;-75
2023/01/11 05:45:55;;;;;;;0.83;0.40;;;1.00;99.90;;;;;;5020350;28;20489;-74
2023/01/11 05:48:22;;;;;;;0.73;0.53;;;1.00;99.90;;;;;;5022580;28;20485;-75
2023/01/11 05:50:53;;;;;;;2.77;1.17;;;1.00;99.90;;;;;;5018713;28;20465;-75
2023/01/11 05:53:22;;;;;;;2.80;1.13;;;1.10;99.90;;;;;;5020063;28;21009;-75
2023/01/11 05:55:53;;;;;;;6.57;1.70;;;1.20;99.90;;;;;;5017599;28;20478;-74
2023/01/11 05:58:20;;;;;;;1.10;0.70;;;1.20;99.90;;;;;;5011899;28;20888;-75
2023/01/11 06:00:49;;;;;;;2.80;0.80;;;1.10;99.90;;;;;;5020317;28;20492;-74
2023/01/11 06:03:16;;;;;;;2.87;1.30;;;1.00;99.90;;;;;;5020597;28;20500;-74
2023/01/11 06:05:43;;;;;;;1.37;1.13;;;1.10;99.90;;;;;;5020491;28;20857;-75
2023/01/11 06:08:11;;;;;;;3.07;0.90;;;1.00;99.90;;;;;;5017205;28;20496;-75
2023/01/11 06:10:37;;;;;;;3.33;1.17;;;1.00;99.90;;;;;;5022604;28;20485;-74
2023/01/11 06:15:50;;;;;;;2.13;1.00;;;0.90;99.90;;;;;;5014465;28;21016;-74
2023/01/11 06:18:17;;;;;;;2.30;0.80;;;0.90;99.90;;;;;;5017025;28;20493;-74
2023/01/11 06:20:48;;;;;;;1.00;0.57;;;0.90;99.90;;;;;;5020574;28;20497;-74
2023/01/11 06:23:15;;;;;;;1.47;0.83;;;0.90;99.90;;;;;;5016275;28;20481;-74
2023/01/11 06:25:41;;;;;;;1.23;0.77;;;1.00;99.90;;;;;;5016148;28;20497;-74
2023/01/11 06:28:08;;;;;;;7.90;4.57;;;0.90;99.90;;;;;;5026413;28;20590;-75
2023/01/11 06:30:35;;;;;;;9.23;4.20;;;0.90;99.90;;;;;;5019261;28;20501;-74
2023/01/11 06:33:05;;;;;;;1.27;0.60;;;1.00;99.90;;;;;;5017217;28;21079;-75
2023/01/11 06:35:33;;;;;;;2.37;1.23;;;0.90;99.90;;;;;;5017652;28;20797;-75
2023/01/11 06:38:00;;;;;;;36.73;16.37;;;0.90;99.90;;;;;;5020632;28;20461;-74
2023/01/11 06:40:27;;;;;;;89.27;44.43;;;0.90;99.90;;;;;;5018289;28;20508;-74
2023/01/11 06:42:53;;;;;;;42.17;22.90;;;1.00;99.90;;;;;;5024236;28;20513;-75
2023/01/11 06:45:20;;;;;;;5.20;2.83;;;1.00;99.90;;;;;;5020911;28;20956;-75
2023/01/11 06:47:48;;;;;;;1.58;0.90;;;1.10;99.90;;;;;;5017978;28;20603;-75
2023/01/11 06:50:17;;;;;;;0.80;0.60;;;1.10;99.90;;;;;;5019950;28;20297;-74
2023/01/11 06:52:44;;;;;;;1.55;0.90;;;1.10;99.90;;;;;;5024678;28;20481;-74
2023/01/11 06:55:10;;;;;;;2.40;0.90;;;1.10;99.90;;;;;;5011312;28;20321;-74
2023/01/11 06:57:37;;;;;;;3.97;0.97;;;1.30;99.90;;;;;;5011684;28;20488;-75
2023/01/11 07:00:05;;;;;;;1.27;0.80;;;1.40;99.90;;;;;;5007576;28;20865;-75
2023/01/11 07:02:32;;;;;;;0.90;0.80;;;1.40;99.90;;;;;;5013263;28;20519;-74
2023/01/11 07:04:59;;;;;;;0.90;0.77;;;1.30;99.90;;;;;;5020801;28;20533;-74
2023/01/11 07:07:27;;;;;;;1.63;0.80;;;1.40;99.90;;;;;;5017402;28;20836;-75
2023/01/11 07:09:54;;;;;;;0.90;0.70;;;1.40;99.90;;;;;;5017690;28;20490;-75
2023/01/11 07:12:21;;;;;;;1.23;1.00;;;1.40;99.90;;;;;;5016154;28;20570;-75
2023/01/11 07:14:49;;;;;;;1.30;0.70;;;1.50;99.90;;;;;;5023985;28;20485;-75
2023/01/11 07:17:16;;;;;;;1.47;1.00;;;1.40;99.90;;;;;;5026912;28;20227;-75
2023/01/11 07:19:43;;;;;;;1.77;1.10;;;1.40;99.90;;;;;;5023952;28;20489;-75
2023/01/11 07:22:10;;;;;;;5.10;1.03;;;1.40;99.90;;;;;;5022851;28;20496;-75
2023/01/11 07:24:38;;;;;;;2.25;1.00;;;1.30;99.90;;;;;;5007725;28;20584;-75
2023/01/11 07:27:39;;;;;;;1.80;1.13;;;1.40;99.90;;;;;;5021208;28;20235;-75
2023/01/11 07:30:07;;;;;;;1.53;0.67;;;1.60;99.90;;;;;;5012520;28;20608;-75
2023/01/11 07:32:34;;;;;;;4.93;1.10;;;1.60;99.90;;;;;;5008981;28;20462;-75
2023/01/11 07:35:01;;;;;;;4.73;1.00;;;1.70;99.90;;;;;;5017006;28;20464;-75
2023/01/11 07:37:31;;;;;;;0.60;0.53;;;1.70;99.90;;;;;;5021065;28;20752;-75
2023/01/11 07:39:59;;;;;;;4.20;0.93;;;1.60;99.90;;;;;;5019470;28;20504;-75
2023/01/11 07:45:11;;;;;;;1.93;0.93;;;1.70;99.90;;;;;;5020562;28;20949;-75
2023/01/11 07:47:38;;;;;;;2.47;0.90;;;1.80;99.90;;;;;;5019062;28;20576;-75
2023/01/11 07:50:05;;;;;;;1.90;0.80;;;1.70;99.90;;;;;;5009518;28;20673;-75
2023/01/11 07:52:32;;;;;;;1.00;0.80;;;1.60;99.90;;;;;;5013351;28;20588;-75
2023/01/11 07:55:02;;;;;;;2.67;1.33;;;1.60;99.90;;;;;;5018841;28;20942;-75
2023/01/11 07:57:29;;;;;;;1.20;1.10;;;1.50;99.90;;;;;;5023621;28;20541;-75
2023/01/11 07:59:56;;;;;;;4.03;2.10;;;1.40;99.90;;;;;;5022201;28;21162;-77
2023/01/11 08:02:23;;;;;;;2.10;1.37;;;1.30;99.90;;;;;;5024595;28;20496;-75
2023/01/11 08:04:50;;;;;;;4.77;1.90;;;1.50;99.90;;;;;;5018985;28;20512;-74
2023/01/11 08:07:17;;;;;;;3.07;1.90;;;1.50;99.90;;;;;;5015937;28;20458;-75
2023/01/11 08:09:43;;;;;;;1.67;1.57;;;1.40;99.90;;;;;;5022696;28;20546;-75
2023/01/11 08:14:56;;;;;;;3.33;1.63;;;1.40;99.90;;;;;;5020430;28;20460;-75
2023/01/11 08:17:23;;;;;;;3.53;1.53;;;1.60;99.90;;;;;;5021203;28;20515;-75
2023/01/11 08:19:50;;;;;;;5.30;1.90;;;1.80;99.90;;;;;;5020644;28;20486;-75
2023/01/11 08:22:17;;;;;;;4.47;1.10;;;1.80;99.90;;;;;;5021573;28;20474;-75
2023/01/11 08:24:44;;;;;;;1.67;1.40;;;1.90;99.90;;;;;;5029851;28;20472;-75
2023/01/11 08:27:13;;;;;;;2.97;1.23;;;2.00;99.90;;;;;;5022137;28;20472;-75
2023/01/11 08:29:42;;;;;;;2.47;1.40;;;2.10;99.90;;;;;;5025829;28;20517;-75
2023/01/11 08:32:10;;;;;;;3.30;1.43;;;2.30;99.90;;;;;;5018415;28;20492;-75
2023/01/11 08:34:37;;;;;;;1.93;1.37;;;2.40;99.90;;;;;;5023268;28;20482;-75
2023/01/11 08:37:04;;;;;;;5.43;1.90;;;2.50;99.90;;;;;;5015460;28;20558;-75
2023/01/11 08:39:31;;;;;;;7.83;2.70;;;2.60;99.90;;;;;;5014029;28;20523;-75
2023/01/11 08:41:59;;;;;;;6.93;2.77;;;2.70;99.90;;;;;;5022551;28;20519;-75
2023/01/11 08:44:27;;;;;;;4.30;2.40;;;2.70;99.90;;;;;;5015925;28;20462;-75
2023/01/11 08:46:54;;;;;;;6.50;2.50;;;2.70;99.90;;;;;;5023330;28;20500;-75
2023/01/11 08:49:21;;;;;;;7.87;2.57;;;2.70;99.90;;;;;;5021894;28;20521;-75
2023/01/11 08:51:48;;;;;;;35.03;3.60;;;2.80;99.90;;;;;;5016009;28;20476;-75
2023/01/11 08:54:16;;;;;;;5.43;1.97;;;2.90;99.90;;;;;;5017124;28;20939;-75
2023/01/11 08:56:43;;;;;;;4.30;1.97;;;3.00;99.90;;;;;;5018073;28;20480;-75
2023/01/11 08:59:11;;;;;;;4.90;1.60;;;3.10;99.90;;;;;;5016715;28;20501;-75
2023/01/11 09:01:39;;;;;;;2.90;1.13;;;3.30;99.90;;;;;;5021509;28;20450;-75
2023/01/11 09:04:06;;;;;;;4.53;1.35;;;3.40;99.90;;;;;;5016819;28;20554;-75
2023/01/11 09:06:33;;;;;;;5.23;1.40;;;3.40;99.90;;;;;;5018778;28;20312;-75
2023/01/11 09:09:00;;;;;;;4.07;1.47;;;3.30;99.90;;;;;;5020880;28;20978;-75
2023/01/11 09:14:11;;;;;;;2.70;1.87;;;3.40;99.90;;;;;;5016384;28;20691;-75
2023/01/11 09:16:39;;;;;;;3.27;1.10;;;3.60;99.90;;;;;;5019820;28;20489;-75
2023/01/11 09:19:06;;;;;;;2.60;1.37;;;3.50;99.90;;;;;;5024206;28;20543;-75
2023/01/11 09:21:33;;;;;;;9.10;2.03;;;3.40;99.90;;;;;;5019386;28;20557;-75
2023/01/11 09:24:00;;;;;;;3.30;1.37;;;3.80;99.90;;;;;;5020874;28;20565;-76
2023/01/11 09:26:28;;;;;;;2.80;2.40;;;3.90;99.90;;;;;;5022425;28;20466;-76
2023/01/11 09:28:55;;;;;;;3.42;1.95;;;3.90;99.90;;;;;;5021171;28;20747;-77
2023/01/11 09:31:22;;;;;;;10.73;4.53;;;3.90;99.90;;;;;;5017575;28;20238;-77
2023/01/11 09:33:50;;;;;;;3.10;2.27;;;3.80;99.90;;;;;;5020330;28;20488;-75
2023/01/11 09:36:20;;;;;;;19.67;10.50;;;3.80;99.90;;;;;;5022202;28;20466;-75
2023/01/11 09:38:49;;;;;;;3.43;2.23;;;3.90;99.90;;;;;;5024042;28;20461;-76
2023/01/11 09:41:35;;;;;;;5.20;2.03;;;4.10;99.90;;;;;;5020464;28;20918;-76
2023/01/11 09:44:10;;;;;;;3.67;2.63;;;4.20;99.90;;;;;;5020225;28;20505;-77
2023/01/11 09:46:41;;;;;;;2.67;0.90;;;4.50;99.90;;;;;;5019849;28;20474;-77
2023/01/11 09:49:16;;;;;;;3.30;1.80;;;4.60;99.90;;;;;;5021956;28;20477;-76
2023/01/11 09:51:43;;;;;;;3.67;1.27;;;4.60;99.90;;;;;;5022826;28;20470;-76
2023/01/11 09:54:18;;;;;;;1.63;1.20;;;4.60;99.90;;;;;;5016344;28;20555;-77
2023/01/11 09:56:50;;;;;;;2.27;1.17;;;4.40;99.90;;;;;;5022367;28;20522;-76
2023/01/11 09:59:25;;;;;;;2.33;1.00;;;4.40;99.90;;;;;;5020903;28;20460;-75
2023/01/11 10:02:03;;;;;;;1.90;0.70;;;4.20;99.90;;;;;;5019973;28;20535;-74
2023/01/11 10:04:48;;;;;;;2.93;0.83;;;4.30;99.90;;;;;;5021012;28;20473;-74
2023/01/11 10:07:37;;;;;;;4.33;0.80;;;4.30;99.90;;;;;;5016438;28;20458;-75
2023/01/11 10:10:20;;;;;;;4.97;1.10;;;4.20;99.90;;;;;;5018144;28;20482;-74
2023/01/11 10:12:59;;;;;;;3.30;1.40;;;4.30;99.90;;;;;;5020252;28;20466;-75
2023/01/11 10:15:36;;;;;;;4.40;1.60;;;4.40;99.90;;;;;;5019231;28;20517;-74
2023/01/11 10:18:23;;;;;;;4.00;1.20;;;4.30;99.90;;;;;;5018763;28;21072;-74
2023/01/11 10:20:55;;;;;;;3.63;1.57;;;3.90;99.90;;;;;;5023745;28;20493;-74
2023/01/11 10:23:27;;;;;;;3.93;1.80;;;4.00;99.90;;;;;;5018915;28;20497;-75
2023/01/11 10:25:59;;;;;;;4.70;2.97;;;4.10;99.90;;;;;;5020563;28;20891;-76
2023/01/11 10:28:34;;;;;;;2.47;2.27;;;4.10;99.90;;;;;;5020283;28;20520;-76
2023/01/11 10:31:27;;;;;;;2.55;1.98;;;4.30;99.90;;;;;;5015715;28;20461;-76
2023/01/11 10:34:12;;;;;;;3.13;2.03;;;4.20;99.90;;;;;;5013264;28;20932;-76
2023/01/11 10:37:05;;;;;;;1.83;1.73;;;4.10;99.90;;;;;;5033183;28;20465;-76
2023/01/11 10:39:58;;;;;;;2.83;2.07;;;4.00;99.90;;;;;;5013692;28;20537;-76
2023/01/11 10:42:28;;;;;;;3.13;1.50;;;4.00;99.90;;;;;;5019036;28;20584;-76
2023/01/11 10:45:00;;;;;;;4.63;1.77;;;3.90;99.90;;;;;;5019106;28;20969;-76
2023/01/11 10:47:35;;;;;;;2.70;1.80;;;4.20;99.90;;;;;;5018189;28;20490;-75
2023/01/11 10:50:14;;;;;;;6.40;3.15;;;4.10;99.90;;;;;;5011812;28;20480;-76
2023/01/11 10:52:50;;;;;;;4.20;1.90;;;4.00;99.90;;;;;;5013873;28;20267;-76
2023/01/11 10:55:24;;;;;;;2.07;1.70;;;4.00;99.90;;;;;;5015123;28;20464;-76
2023/01/11 10:58:02;;;;;;;3.57;1.30;;;4.20;99.90;;;;;;5019503;28;20949;-76
2023/01/11 11:00:36;;;;;;;12.00;2.97;;;4.30;99.90;;;;;;5023355;28;20459;-76
2023/01/11 11:03:24;;;;;;;1.37;1.03;;;4.30;99.90;;;;;;5020003;28;20505;-76
2023/01/11 11:05:59;;;;;;;3.00;1.53;;;4.50;99.90;;;;;;5018610;28;20488;-76
2023/01/11 11:08:34;;;;;;;6.53;2.10;;;4.40;99.90;;;;;;5031215;28;20578;-76
2023/01/11 11:11:07;;;;;;;3.70;1.63;;;4.60;99.90;;;;;;5020496;28;20202;-76
2023/01/11 11:13:46;;;;;;;7.03;1.60;;;4.40;99.90;;;;;;5020085;28;20849;-76
2023/01/11 11:16:26;;;;;;;1.60;1.10;;;4.50;99.90;;;;;;5025158;28;20980;-76
2023/01/11 11:18:57;;;;;;;2.70;1.20;;;4.60;99.90;;;;;;5027370;28;20499;-76
2023/01/11 11:21:27;;;;;;;4.50;1.52;;;4.50;99.90;;;;;;5021887;28;20482;-76
2023/01/11 11:23:59;;;;;;;3.45;2.28;;;4.60;99.90;;;;;;5013347;28;20638;-76
2023/01/11 11:26:36;;;;;;;3.40;1.95;;;4.60;99.90;;;;;;5018342;28;20318;-75
2023/01/11 11:29:06;;;;;;;5.23;3.77;;;4.50;99.90;;;;;;5022025;28;20292;-75
2023/01/11 11:31:36;;;;;;;3.77;3.03;;;4.70;99.90;;;;;;5025465;28;20508;-76
2023/01/11 11:34:08;;;;;;;4.90;3.00;;;4.60;99.90;;;;;;5028452;28;20519;-76
2023/01/11 11:36:42;;;;;;;5.97;4.10;;;4.60;99.90;;;;;;5024480;28;20489;-76
2023/01/11 11:39:19;;;;;;;7.20;3.37;;;4.50;99.90;;;;;;5026530;28;20449;-76
2023/01/11 11:41:48;;;;;;;3.50;2.90;;;4.40;99.90;;;;;;5026048;28;20493;-76
2023/01/11 11:44:19;;;;;;;6.33;2.80;;;4.40;99.90;;;;;;5018679;28;20531;-75
2023/01/11 11:46:59;;;;;;;7.53;3.37;;;4.30;99.90;;;;;;5021704;28;20469;-76
2023/01/11 11:49:27;;;;;;;4.60;3.83;;;4.40;99.90;;;;;;5031999;28;20515;-76
2023/01/11 11:51:55;;;;;;;3.63;3.20;;;4.30;99.90;;;;;;5023527;28;20478;-76
2023/01/11 11:54:28;;;;;;;3.50;2.90;;;4.50;99.90;;;;;;5017415;28;20527;-76
2023/01/11 11:56:57;;;;;;;3.10;2.73;;;4.40;99.90;;;;;;5019385;28;20529;-76
2023/01/11 11:59:28;;;;;;;4.23;2.40;;;4.40;99.90;;;;;;5021447;28;20461;-75
2023/01/11 12:01:59;;;;;;;1.83;1.73;;;4.50;99.90;;;;;;5021959;28;20470;-76
2023/01/11 12:04:33;;;;;;;2.80;2.47;;;4.30;99.90;;;;;;5029743;28;20489;-76
2023/01/11 12:07:13;;;;;;;5.70;2.10;;;4.30;99.90;;;;;;5019565;28;20488;-76
2023/01/11 12:09:45;;;;;;;8.83;2.77;;;4.40;99.90;;;;;;5025730;28;20831;-76
2023/01/11 12:12:17;;;;;;;4.00;2.58;;;4.40;99.90;;;;;;5023450;28;20461;-76
2023/01/11 12:15:07;;;;;;;5.78;3.17;;;4.50;99.90;;;;;;5026797;28;20213;-76
2023/01/11 12:17:34;;;;;;;4.05;2.85;;;4.60;99.90;;;;;;5024627;28;20206;-76
2023/01/11 12:20:01;;;;;;;6.73;2.70;;;4.60;99.90;;;;;;5028904;28;20238;-76
2023/01/11 12:22:29;;;;;;;5.73;3.13;;;4.80;99.90;;;;;;5033628;28;20523;-76
2023/01/11 12:25:21;;;;;;;2.63;2.27;;;4.80;99.90;;;;;;5028882;28;20469;-76
2023/01/11 12:27:56;;;;;;;4.20;2.70;;;4.60;99.90;;;;;;5017849;28;20545;-76
2023/01/11 12:30:27;;;;;;;4.10;3.40;;;4.70;99.90;;;;;;5025488;28;20520;-76
2023/01/11 12:33:27;;;;;;;3.28;2.60;;;4.80;99.90;;;;;;5021508;28;20521;-76
2023/01/11 12:36:01;;;;;;;2.50;2.03;;;5.00;99.90;;;;;;5028252;28;20240;-76
2023/01/11 12:38:39;;;;;;;4.97;3.27;;;4.90;99.90;;;;;;5023337;28;20497;-78
2023/01/11 12:41:42;;;;;;;8.70;4.90;;;5.00;99.90;;;;;;5014011;28;20596;-78
2023/01/11 12:44:14;;;;;;;5.87;4.03;;;5.10;99.90;;;;;;5012047;28;20548;-78
2023/01/11 12:46:53;;;;;;;4.20;2.93;;;5.10;99.90;;;;;;5020637;28;20493;-76
2023/01/11 12:49:33;;;;;;;3.67;2.53;;;5.20;99.90;;;;;;5018119;28;21007;-76
2023/01/11 12:52:24;;;;;;;3.30;1.70;;;5.20;99.90;;;;;;5021798;28;20503;-76
2023/01/11 12:55:05;;;;;;;3.10;2.00;;;5.40;99.90;;;;;;5023014;28;20635;-76
2023/01/11 12:57:41;;;;;;;2.70;2.13;;;5.40;99.90;;;;;;5023684;28;20453;-76
2023/01/11 13:00:28;;;;;;;4.87;1.90;;;5.40;99.90;;;;;;5022118;28;20812;-76
2023/01/11 13:03:33;;;;;;;1.60;1.17;;;5.20;99.90;;;;;;5026922;28;20490;-76
2023/01/11 13:06:08;;;;;;;4.43;2.08;;;5.00;99.90;;;;;;5021323;28;20563;-75
2023/01/11 13:08:48;;;;;;;6.23;1.90;;;4.90;99.90;;;;;;5022850;28;20234;-76
2023/01/11 13:11:39;;;;;;;2.00;1.77;;;4.80;99.90;;;;;;5023268;28;20554;-76
2023/01/11 13:14:34;;;;;;;2.80;2.60;;;4.90;99.90;;;;;;5017893;28;20473;-76
2023/01/11 13:17:12;;;;;;;1.87;1.67;;;4.70;99.90;;;;;;5030776;28;20461;-75
2023/01/11 13:19:45;;;;;;;3.00;1.70;;;4.60;99.90;;;;;;5017660;28;20523;-76
2023/01/11 13:22:15;;;;;;;3.13;2.50;;;4.50;99.90;;;;;;5023852;28;20489;-76
2023/01/11 13:24:46;;;;;;;4.77;1.70;;;4.60;99.90;;;;;;5021201;28;20493;-76
2023/01/11 13:27:17;;;;;;;3.83;2.30;;;4.60;99.90;;;;;;5020440;28;20553;-75
2023/01/11 13:29:48;;;;;;;2.20;1.53;;;4.50;99.90;;;;;;5017180;28;20488;-75
2023/01/11 13:32:19;;;;;;;2.27;2.10;;;4.50;99.90;;;;;;5014518;28;20919;-76
2023/01/11 13:34:51;;;;;;;3.00;2.17;;;4.50;99.90;;;;;;5021823;28;20493;-76
2023/01/11 13:37:25;;;;;;;5.20;3.00;;;4.50;99.90;;;;;;5016848;28;20989;-75
2023/01/11 13:39:57;;;;;;;5.83;3.30;;;4.40;99.90;;;;;;5021363;28;20292;-75
2023/01/11 13:42:28;;;;;;;3.80;2.43;;;4.40;99.90;;;;;;5021327;28;20520;-75